createdAt,value
2019-01-21T00:00:22.221Z,-0.43
2019-01-21T00:02:52.463Z,-0.36
2019-01-21T00:05:23.044Z,-0.31
2019-01-21T00:07:53.394Z,-0.39
2019-01-21T00:10:23.762Z,-0.33
2019-01-21T00:12:55.448Z,-0.35
2019-01-21T00:15:28.054Z,-0.46
2019-01-21T00:18:01.151Z,-0.47
2019-01-21T00:20:31.433Z,-0.36
2019-01-21T00:23:02.511Z,-0.44
2019-01-21T00:25:34.168Z,-0.47
2019-01-21T00:28:07.250Z,-0.54
2019-01-21T00:30:37.575Z,-0.56
2019-01-21T00:33:11.095Z,-0.57
2019-01-21T00:35:41.350Z,-0.56
2019-01-21T00:38:11.606Z,-0.53
2019-01-21T00:40:42.163Z,-0.57
2019-01-21T00:43:12.456Z,-0.45
2019-01-21T00:45:42.769Z,-0.48
2019-01-21T00:48:13.021Z,-0.45
2019-01-21T00:50:43.264Z,-0.45
2019-01-21T00:53:13.780Z,-0.46
2019-01-21T00:55:44.378Z,-0.40
2019-01-21T00:58:14.676Z,-0.41
2019-01-21T01:00:48.049Z,-0.44
2019-01-21T01:03:18.858Z,-0.48
2019-01-21T01:05:49.257Z,-0.45
2019-01-21T01:10:46.281Z,-0.49
2019-01-21T01:13:16.517Z,-0.47
2019-01-21T01:15:46.821Z,-0.44
2019-01-21T01:18:20.206Z,-0.43
2019-01-21T01:20:51.075Z,-0.40
2019-01-21T01:23:21.350Z,-0.51
2019-01-21T01:25:51.713Z,-0.49
2019-01-21T01:28:22.379Z,-0.47
2019-01-21T01:30:52.669Z,-0.43
2019-01-21T01:33:22.971Z,-0.51
2019-01-21T01:35:53.209Z,-0.51
2019-01-21T01:38:25.818Z,-0.57
2019-01-21T01:40:56.110Z,-0.57
2019-01-21T01:43:26.486Z,-0.56
2019-01-21T01:45:56.889Z,-0.62
2019-01-21T01:48:27.442Z,-0.50
2019-01-21T01:50:57.724Z,-0.58
2019-01-21T01:53:28.155Z,-0.61
2019-01-21T01:55:58.507Z,-0.52
2019-01-21T01:58:28.724Z,-0.56
2019-01-21T02:00:59.164Z,-0.67
2019-01-21T02:03:30.730Z,-0.67
2019-01-21T02:06:01.344Z,-0.62
2019-01-21T02:08:34.074Z,-0.59
2019-01-21T02:11:04.376Z,-0.53
2019-01-21T02:13:34.680Z,-0.49
2019-01-21T02:16:05.029Z,-0.58
2019-01-21T02:18:35.664Z,-0.76
2019-01-21T02:21:06.543Z,-0.82
2019-01-21T02:23:38.430Z,-1.02
2019-01-21T02:26:22.469Z,-1.13
2019-01-21T02:29:04.462Z,-1.27
2019-01-21T02:32:14.187Z,-1.36
2019-01-21T02:35:31.640Z,-1.46
2019-01-21T02:38:35.333Z,-1.54
2019-01-21T02:41:35.807Z,-1.66
2019-01-21T02:44:53.412Z,-1.77
2019-01-21T02:47:40.352Z,-1.82
2019-01-21T02:50:50.804Z,-1.89
2019-01-21T02:54:04.784Z,-1.89
2019-01-21T02:57:28.218Z,-1.94
2019-01-21T03:00:25.837Z,-1.96
2019-01-21T03:03:29.921Z,-2.01
2019-01-21T03:06:34.420Z,-2.06
2019-01-21T03:09:37.818Z,-2.08
2019-01-21T03:12:56.206Z,-2.14
2019-01-21T03:15:53.033Z,-2.13
2019-01-21T03:19:07.502Z,-2.23
2019-01-21T03:22:06.327Z,-2.23
2019-01-21T03:25:29.245Z,-2.29
2019-01-21T03:28:40.235Z,-2.30
2019-01-21T03:32:05.322Z,-2.29
2019-01-21T03:35:41.036Z,-2.30
2019-01-21T03:38:47.868Z,-2.40
2019-01-21T03:41:37.609Z,-2.47
2019-01-21T03:44:40.099Z,-2.45
2019-01-21T03:47:47.825Z,-2.52
2019-01-21T03:50:58.327Z,-2.59
2019-01-21T03:53:55.549Z,-2.75
2019-01-21T03:56:59.543Z,-2.80
2019-01-21T04:00:00.487Z,-2.80
2019-01-21T04:03:05.835Z,-2.63
2019-01-21T04:06:26.173Z,-2.77
2019-01-21T04:09:37.263Z,-2.83
2019-01-21T04:12:32.038Z,-2.89
2019-01-21T04:15:34.021Z,-2.97
2019-01-21T04:18:30.122Z,-3.03
2019-01-21T04:21:27.486Z,-3.09
2019-01-21T04:24:49.979Z,-2.93
2019-01-21T04:27:34.540Z,-2.88
2019-01-21T04:30:20.248Z,-2.74
2019-01-21T04:33:49.204Z,-2.75
2019-01-21T04:36:52.569Z,-2.77
2019-01-21T04:40:12.638Z,-2.89
2019-01-21T04:43:21.905Z,-2.97
2019-01-21T04:46:08.299Z,-3.06
2019-01-21T04:48:56.962Z,-2.81
2019-01-21T04:52:07.700Z,-3.02
2019-01-21T04:55:24.084Z,-3.22
2019-01-21T04:58:30.761Z,-3.33
2019-01-21T05:01:48.320Z,-3.48
2019-01-21T05:04:55.290Z,-3.63
2019-01-21T05:08:15.728Z,-3.75
2019-01-21T05:11:16.021Z,-3.79
2019-01-21T05:14:31.086Z,-3.84
2019-01-21T05:17:55.404Z,-3.89
2019-01-21T05:21:06.300Z,-3.82
2019-01-21T05:24:17.538Z,-3.93
2019-01-21T05:27:10.385Z,-3.97
2019-01-21T05:30:08.493Z,-4.11
2019-01-21T05:33:40.612Z,-4.13
2019-01-21T05:36:48.729Z,-4.15
2019-01-21T05:39:34.167Z,-4.13
2019-01-21T05:42:36.671Z,-4.21
2019-01-21T05:45:25.671Z,-4.23
2019-01-21T05:48:31.115Z,-4.24
2019-01-21T05:51:32.685Z,-4.30
2019-01-21T05:55:04.703Z,-4.35
2019-01-21T05:58:34.271Z,-4.46
2019-01-21T06:01:47.687Z,-4.40
2019-01-21T06:04:59.422Z,-4.38
2019-01-21T06:08:07.841Z,-4.53
2019-01-21T06:10:47.344Z,-4.51
2019-01-21T06:13:55.569Z,-4.58
2019-01-21T06:17:03.661Z,-4.67
2019-01-21T06:20:11.701Z,-4.72
2019-01-21T06:23:30.977Z,-4.73
2019-01-21T06:26:42.434Z,-4.72
2019-01-21T06:29:34.355Z,-4.82
2019-01-21T06:32:45.324Z,-4.67
2019-01-21T06:35:59.737Z,-4.74
2019-01-21T06:39:08.766Z,-4.70
2019-01-21T06:42:39.683Z,-4.85
2019-01-21T06:45:35.160Z,-4.86
2019-01-21T06:48:54.988Z,-4.78
2019-01-21T06:52:01.422Z,-4.79
2019-01-21T06:55:07.532Z,-4.83
2019-01-21T06:58:17.737Z,-4.81
2019-01-21T07:01:25.273Z,-4.92
2019-01-21T07:04:33.861Z,-4.90
2019-01-21T07:07:57.295Z,-4.92
2019-01-21T07:10:36.673Z,-5.10
2019-01-21T07:13:53.865Z,-5.06
2019-01-21T07:17:05.256Z,-5.11
2019-01-21T07:20:03.632Z,-5.16
2019-01-21T07:23:17.958Z,-5.14
2019-01-21T07:26:25.823Z,-4.97
2019-01-21T07:29:32.953Z,-5.00
2019-01-21T07:32:37.741Z,-5.01
2019-01-21T07:36:09.961Z,-5.02
2019-01-21T07:38:54.646Z,-5.07
2019-01-21T07:42:00.378Z,-5.15
2019-01-21T07:45:09.543Z,-5.04
2019-01-21T07:48:15.318Z,-5.01
2019-01-21T07:51:23.763Z,-5.01
2019-01-21T07:54:49.749Z,-5.16
2019-01-21T07:57:54.863Z,-5.16
2019-01-21T08:00:51.697Z,-5.08
2019-01-21T08:03:55.643Z,-5.04
2019-01-21T08:07:04.473Z,-5.07
2019-01-21T08:09:59.071Z,-5.07
2019-01-21T08:13:06.198Z,-4.97
2019-01-21T08:16:02.132Z,-4.98
2019-01-21T08:18:57.123Z,-4.76
2019-01-21T08:21:58.677Z,-4.77
2019-01-21T08:25:08.853Z,-4.85
2019-01-21T08:27:58.550Z,-4.92
2019-01-21T08:31:07.982Z,-4.96
2019-01-21T08:34:19.204Z,-4.79
2019-01-21T08:37:39.826Z,-4.76
2019-01-21T08:40:19.976Z,-4.70
2019-01-21T08:43:23.477Z,-4.66
2019-01-21T08:46:33.272Z,-4.66
2019-01-21T08:49:40.495Z,-4.58
2019-01-21T08:52:44.057Z,-4.54
2019-01-21T08:55:36.543Z,-4.44
2019-01-21T08:59:02.469Z,-4.45
2019-01-21T09:02:13.402Z,-4.38
2019-01-21T09:05:32.953Z,-4.30
2019-01-21T09:08:48.448Z,-4.19
2019-01-21T09:12:05.312Z,-4.01
2019-01-21T09:15:12.242Z,-3.88
2019-01-21T09:18:04.278Z,-3.71
2019-01-21T09:21:24.551Z,-3.66
2019-01-21T09:24:34.763Z,-3.59
2019-01-21T09:27:17.966Z,-3.39
2019-01-21T09:30:19.830Z,-3.30
2019-01-21T09:33:34.545Z,-3.26
2019-01-21T09:36:54.667Z,-3.20
2019-01-21T09:39:57.976Z,-3.04
2019-01-21T09:43:06.004Z,-2.95
2019-01-21T09:46:06.416Z,-2.94
2019-01-21T09:48:34.828Z,-2.87
2019-01-21T09:51:09.408Z,-2.74
2019-01-21T09:53:40.028Z,-2.67
2019-01-21T09:56:10.366Z,-2.65
2019-01-21T09:58:52.828Z,-2.50
2019-01-21T10:01:28.295Z,-2.47
2019-01-21T10:03:59.457Z,-2.37
2019-01-21T10:06:46.786Z,-2.35
2019-01-21T10:09:45.881Z,-2.24
2019-01-21T10:12:50.754Z,-2.23
2019-01-21T10:16:20.562Z,-2.24
2019-01-21T10:19:58.123Z,-2.24
2019-01-21T10:22:49.851Z,-2.24
2019-01-21T10:26:05.781Z,-2.26
2019-01-21T10:29:04.729Z,-2.13
2019-01-21T10:32:17.774Z,-2.13
2019-01-21T10:35:17.694Z,-2.05
2019-01-21T10:38:23.857Z,-2.05
2019-01-21T10:41:28.841Z,-2.00
2019-01-21T10:45:01.012Z,-1.84
2019-01-21T10:47:55.171Z,-1.79
2019-01-21T10:50:36.513Z,-1.76
2019-01-21T10:53:33.249Z,-1.70
2019-01-21T10:56:56.545Z,-1.65
2019-01-21T11:00:03.898Z,-1.58
2019-01-21T11:03:12.666Z,-1.59
2019-01-21T11:06:26.048Z,-1.41
2019-01-21T11:09:18.354Z,-1.48
2019-01-21T11:12:40.319Z,-1.36
2019-01-21T11:15:57.939Z,-1.33
2019-01-21T11:19:12.034Z,-1.27
2019-01-21T11:22:13.153Z,-1.31
2019-01-21T11:25:36.331Z,-1.35
2019-01-21T11:28:37.534Z,-1.31
2019-01-21T11:31:30.052Z,-1.28
2019-01-21T11:34:32.783Z,-1.20
2019-01-21T11:37:27.622Z,-1.18
2019-01-21T11:40:34.995Z,-1.09
2019-01-21T11:43:44.297Z,-1.06
2019-01-21T11:47:02.251Z,-1.01
2019-01-21T11:50:12.721Z,-0.95
2019-01-21T11:53:10.738Z,-0.76
2019-01-21T11:56:22.696Z,-0.77
2019-01-21T11:59:35.138Z,-0.71
2019-01-21T12:02:46.876Z,-0.74
2019-01-21T12:06:11.236Z,-0.68
2019-01-21T12:09:46.514Z,-0.63
2019-01-21T12:12:57.051Z,-0.53
2019-01-21T12:16:23.340Z,-0.45
2019-01-21T12:19:39.685Z,-0.37
2019-01-21T12:22:50.656Z,-0.43
2019-01-21T12:25:38.745Z,-0.46
2019-01-21T12:28:49.516Z,-0.34
2019-01-21T12:32:12.857Z,-0.32
2019-01-21T12:35:19.114Z,-0.31
2019-01-21T12:38:25.904Z,-0.23
2019-01-21T12:41:21.978Z,-0.19
2019-01-21T12:44:20.169Z,-0.17
2019-01-21T12:47:02.595Z,0.00
2019-01-21T12:50:17.080Z,-0.05
2019-01-21T12:53:16.805Z,-0.04
2019-01-21T12:56:26.385Z,-0.03
2019-01-21T12:59:23.253Z,-0.08
2019-01-21T13:02:34.738Z,0.00
2019-01-21T13:05:34.475Z,0.12
2019-01-21T13:08:42.563Z,0.17
2019-01-21T13:11:49.700Z,0.21
2019-01-21T13:14:53.221Z,0.28
2019-01-21T13:17:36.266Z,0.41
2019-01-21T13:20:37.439Z,0.33
2019-01-21T13:23:31.236Z,0.39
2019-01-21T13:26:40.890Z,0.43
2019-01-21T13:29:44.228Z,0.31
2019-01-21T13:32:52.301Z,0.24
2019-01-21T13:35:55.140Z,0.26
2019-01-21T13:39:08.829Z,0.32
2019-01-21T13:42:20.709Z,0.24
2019-01-21T13:45:38.857Z,0.18
2019-01-21T13:48:22.378Z,0.29
2019-01-21T13:51:17.274Z,0.21
2019-01-21T13:54:40.335Z,0.27
2019-01-21T13:57:56.424Z,0.33
2019-01-21T14:01:09.728Z,0.31
2019-01-21T14:04:18.383Z,0.34
2019-01-21T14:07:19.989Z,0.33
2019-01-21T14:10:59.275Z,0.30
2019-01-21T14:14:11.618Z,0.40
2019-01-21T14:17:13.919Z,0.52
2019-01-21T14:20:19.855Z,0.28
2019-01-21T14:23:25.307Z,0.33
2019-01-21T14:26:37.153Z,0.26
2019-01-21T14:29:23.637Z,0.28
2019-01-21T14:32:28.474Z,0.17
2019-01-21T14:35:41.679Z,0.16
2019-01-21T14:38:52.487Z,0.33
2019-01-21T14:45:00.472Z,-0.03
2019-01-21T14:48:09.583Z,-0.11
2019-01-21T14:51:13.070Z,-0.15
2019-01-21T14:54:16.981Z,-0.14
2019-01-21T14:57:45.159Z,-0.17
2019-01-21T15:01:55.146Z,-0.29
2019-01-21T15:08:53.948Z,-0.46
2019-01-21T15:12:00.422Z,-0.53
2019-01-21T15:15:10.725Z,-0.52
2019-01-21T15:18:09.788Z,-0.59
2019-01-21T15:21:14.593Z,-0.74
2019-01-21T15:24:33.094Z,-0.89
2019-01-21T15:27:28.004Z,-1.03
2019-01-21T15:30:29.250Z,-1.11
2019-01-21T15:33:50.515Z,-1.12
2019-01-21T15:36:50.717Z,-1.23
2019-01-21T15:40:05.400Z,-1.29
2019-01-21T15:42:59.222Z,-1.40
2019-01-21T15:46:25.234Z,-1.53
2019-01-21T15:49:08.152Z,-1.61
2019-01-21T15:52:28.710Z,-1.79
2019-01-21T15:55:42.773Z,-1.85
2019-01-21T15:58:50.796Z,-1.85
2019-01-21T16:02:01.477Z,-1.94
2019-01-21T16:05:01.262Z,-1.97
2019-01-21T16:08:03.805Z,-2.03
2019-01-21T16:11:15.465Z,-2.04
2019-01-21T16:14:13.825Z,-2.09
2019-01-21T16:17:08.914Z,-2.22
2019-01-21T16:20:14.767Z,-2.30
2019-01-21T16:23:39.680Z,-2.36
2019-01-21T16:26:14.054Z,-2.34
2019-01-21T16:29:18.093Z,-2.23
2019-01-21T16:32:22.798Z,-2.07
2019-01-21T16:35:18.953Z,-1.96
2019-01-21T16:38:12.818Z,-1.85
2019-01-21T16:41:18.175Z,-1.85
2019-01-21T16:43:49.578Z,-1.76
2019-01-21T16:46:22.755Z,-1.67
2019-01-21T16:48:54.207Z,-1.68
2019-01-21T16:51:24.887Z,-1.69
2019-01-21T16:54:07.542Z,-1.65
2019-01-21T16:56:44.919Z,-1.57
2019-01-21T16:59:18.298Z,-1.57
2019-01-21T17:01:49.899Z,-1.58
2019-01-21T17:04:20.309Z,-1.48
2019-01-21T17:06:53.146Z,-1.50
2019-01-21T17:09:26.223Z,-1.45
2019-01-21T17:11:56.632Z,-1.47
2019-01-21T17:14:31.842Z,-1.49
2019-01-21T17:17:06.878Z,-1.50
2019-01-21T17:19:38.304Z,-1.53
2019-01-21T17:22:09.087Z,-1.55
2019-01-21T17:24:40.831Z,-1.59
2019-01-21T17:27:14.281Z,-1.65
2019-01-21T17:29:45.411Z,-1.67
2019-01-21T17:32:16.218Z,-1.65
2019-01-21T17:34:53.227Z,-1.60
2019-01-21T17:37:24.679Z,-1.54
2019-01-21T17:39:55.331Z,-1.51
2019-01-21T17:42:27.296Z,-1.53
2019-01-21T17:45:00.784Z,-1.56
2019-01-21T17:47:34.426Z,-1.60
2019-01-21T17:50:05.685Z,-1.65
2019-01-21T17:52:40.702Z,-1.67
2019-01-21T17:55:16.109Z,-1.60
2019-01-21T17:57:50.877Z,-1.57
2019-01-21T18:00:34.188Z,-1.57
2019-01-21T18:03:06.246Z,-1.61
2019-01-21T18:05:57.081Z,-1.65
2019-01-21T18:08:41.542Z,-1.78
2019-01-21T18:11:15.072Z,-1.90
2019-01-21T18:13:48.848Z,-2.01
2019-01-21T18:16:21.442Z,-2.00
2019-01-21T18:18:54.387Z,-2.15
2019-01-21T18:21:29.927Z,-2.19
2019-01-21T18:24:03.046Z,-2.15
2019-01-21T18:26:35.914Z,-1.80
2019-01-21T18:29:09.523Z,-1.83
2019-01-21T18:31:40.112Z,-1.84
2019-01-21T18:34:14.763Z,-1.81
2019-01-21T18:36:45.194Z,-1.87
2019-01-21T18:39:21.265Z,-1.89
2019-01-21T18:41:54.701Z,-1.81
2019-01-21T18:44:25.179Z,-1.80
2019-01-21T18:46:59.669Z,-1.77
2019-01-21T18:49:33.408Z,-1.83
2019-01-21T18:52:05.027Z,-1.79
2019-01-21T18:54:36.849Z,-1.84
2019-01-21T18:57:07.260Z,-1.87
2019-01-21T18:59:39.912Z,-1.84
2019-01-21T19:02:10.258Z,-1.84
2019-01-21T19:04:44.800Z,-1.81
2019-01-21T19:07:15.062Z,-1.78
2019-01-21T19:09:47.911Z,-1.84
2019-01-21T19:12:18.729Z,-1.89
2019-01-21T19:14:59.594Z,-1.90
2019-01-21T19:17:29.242Z,-1.93
2019-01-21T19:20:07.221Z,-1.95
2019-01-21T19:22:39.062Z,-1.91
2019-01-21T19:25:18.986Z,-1.81
2019-01-21T19:27:55.218Z,-1.78
2019-01-21T19:30:30.986Z,-1.79
2019-01-21T19:33:06.292Z,-1.79
2019-01-21T19:35:39.524Z,-1.79
2019-01-21T19:38:10.720Z,-1.70
2019-01-21T19:40:58.688Z,-1.61
2019-01-21T19:43:28.976Z,-1.54
2019-01-21T19:45:59.530Z,-1.49
2019-01-21T19:48:40.186Z,-1.43
2019-01-21T19:51:12.007Z,-1.42
2019-01-21T19:53:46.416Z,-1.39
2019-01-21T19:56:22.013Z,-1.37
2019-01-21T19:58:52.403Z,-1.43
2019-01-21T20:01:25.740Z,-1.43
2019-01-21T20:04:02.347Z,-1.54
2019-01-21T20:06:36.470Z,-1.67
2019-01-21T20:09:29.995Z,-1.59
2019-01-21T20:12:01.934Z,-1.52
2019-01-21T20:14:35.077Z,-1.64
2019-01-21T20:17:08.018Z,-1.75
2019-01-21T20:19:43.739Z,-1.63
2019-01-21T20:22:20.922Z,-1.75
2019-01-21T20:24:53.282Z,-1.89
2019-01-21T20:27:28.696Z,-1.95
2019-01-21T20:30:02.155Z,-2.07
2019-01-21T20:33:19.135Z,-2.17
2019-01-21T20:35:53.969Z,-2.21
2019-01-21T20:38:24.597Z,-2.12
2019-01-21T20:41:13.026Z,-2.19
2019-01-21T20:43:47.750Z,-2.25
2019-01-21T20:46:20.817Z,-2.25
2019-01-21T20:48:51.440Z,-2.31
2019-01-21T20:51:28.046Z,-2.29
2019-01-21T20:54:06.781Z,-2.31
2019-01-21T20:56:48.830Z,-2.32
2019-01-21T20:59:20.348Z,-2.40
2019-01-21T21:01:51.381Z,-2.45
2019-01-21T21:04:25.302Z,-2.40
2019-01-21T21:06:58.912Z,-2.38
2019-01-21T21:09:30.369Z,-2.38
2019-01-21T21:12:03.288Z,-2.36
2019-01-21T21:14:37.077Z,-2.38
2019-01-21T21:17:09.763Z,-2.41
2019-01-21T21:19:42.828Z,-2.49
2019-01-21T21:22:21.011Z,-2.40
2019-01-21T21:24:48.186Z,-2.39
2019-01-21T21:27:27.421Z,-2.35
2019-01-21T21:29:58.293Z,-2.40
2019-01-21T21:32:31.091Z,-2.37
2019-01-21T21:35:05.150Z,-2.39
2019-01-21T21:37:45.690Z,-2.36
2019-01-21T21:40:19.938Z,-2.39
2019-01-21T21:42:50.592Z,-2.37
2019-01-21T21:45:22.782Z,-2.46
2019-01-21T21:47:53.410Z,-2.55
2019-01-21T21:50:26.377Z,-2.55
2019-01-21T21:53:04.634Z,-2.65
2019-01-21T21:55:40.760Z,-2.71
2019-01-21T21:58:17.083Z,-2.73
2019-01-21T22:00:57.895Z,-2.75
2019-01-21T22:03:30.073Z,-2.79
2019-01-21T22:06:04.742Z,-2.82
2019-01-21T22:08:37.935Z,-2.85
2019-01-21T22:11:09.684Z,-2.89
2019-01-21T22:13:39.996Z,-2.76
2019-01-21T22:16:10.397Z,-2.74
2019-01-21T22:18:40.689Z,-2.78
2019-01-21T22:21:11.374Z,-2.89
2019-01-21T22:23:41.913Z,-2.87
2019-01-21T22:26:14.744Z,-2.90
2019-01-21T22:28:45.316Z,-2.92
2019-01-21T22:31:22.354Z,-2.99
2019-01-21T22:33:52.703Z,-3.01
2019-01-21T22:36:23.237Z,-3.11
2019-01-21T22:38:56.243Z,-3.17
2019-01-21T22:41:30.480Z,-3.13
2019-01-21T22:44:06.959Z,-3.20
2019-01-21T22:46:39.150Z,-3.27
2019-01-21T22:49:12.100Z,-3.35
2019-01-21T22:51:44.962Z,-3.23
2019-01-21T22:54:17.931Z,-3.35
2019-01-21T22:56:48.622Z,-3.52
2019-01-21T22:59:21.769Z,-3.62
2019-01-21T23:01:52.178Z,-3.62
2019-01-21T23:04:22.582Z,-3.64
2019-01-21T23:06:53.130Z,-3.64
2019-01-21T23:09:27.870Z,-3.71
2019-01-21T23:11:59.376Z,-3.73
2019-01-21T23:14:32.846Z,-3.79
2019-01-21T23:17:03.133Z,-3.90
2019-01-21T23:19:33.452Z,-3.90
2019-01-21T23:22:07.672Z,-3.96
2019-01-21T23:24:38.410Z,-3.94
2019-01-21T23:27:08.688Z,-4.00
2019-01-21T23:29:41.918Z,-4.14
2019-01-21T23:32:12.368Z,-4.18
2019-01-21T23:34:44.331Z,-4.23
2019-01-21T23:37:14.752Z,-4.29
2019-01-21T23:39:45.341Z,-4.31
2019-01-21T23:42:24.525Z,-4.36
2019-01-21T23:44:54.958Z,-4.43
2019-01-21T23:47:25.633Z,-4.54
2019-01-21T23:50:00.722Z,-4.59
2019-01-21T23:52:31.181Z,-4.66
2019-01-21T23:55:02.462Z,-4.68
2019-01-21T23:57:32.872Z,-4.77
